This is the latest recevied weather packets stored in our database for station/object F5PQL-4. If no packets are shown the sender has not sent any weather packets the latest 10 day(s).
| Time | Temp. | Humidity | Pressure | Rain* | Wind** | Luminosity | Snow |
|---|---|---|---|---|---|---|---|
| 1777998104 | 20° C | 59% | 1010.5 hPa | - | - | - | - |
| 1777997204 | 19.44° C | 59% | 1010.6 hPa | - | - | - | - |
| 1777996303 | 21.11° C | 56% | 1010.4 hPa | - | - | - | - |
| 1777995403 | 24.44° C | 50% | 1010.3 hPa | - | - | - | - |
| 1777994503 | 22.22° C | 60% | 1010.5 hPa | - | - | - | - |
| 1777993603 | 17.78° C | 69% | 1010.5 hPa | - | - | - | - |
| 1777992703 | 18.33° C | 68% | 1010.6 hPa | - | - | - | - |
| 1777991803 | 18.89° C | 66% | 1010.6 hPa | - | - | - | - |
| 1777990903 | 18.89° C | 65% | 1010.7 hPa | - | - | - | - |
| 1777990002 | 19.44° C | 63% | 1010.7 hPa | - | - | - | - |
| 1777989102 | 18.89° C | 63% | 1010.6 hPa | - | - | - | - |
| 1777988202 | 19.44° C | 61% | 1010.5 hPa | - | - | - | - |
| 1777987302 | 19.44° C | 62% | 1010.8 hPa | - | - | - | - |
| 1777986402 | 21.67° C | 54% | 1010.9 hPa | - | - | - | - |
| 1777985502 | 22.78° C | 50% | 1010.7 hPa | - | - | - | - |
| 1777984602 | 24.44° C | 46% | 1010.5 hPa | - | - | - | - |
| 1777983702 | 23.89° C | 47% | 1010.4 hPa | - | - | - | - |
| 1777982801 | 23.89° C | 47% | 1010.4 hPa | - | - | - | - |
| 1777981901 | 26.67° C | 44% | 1010.3 hPa | - | - | - | - |
| 1777981001 | 25.56° C | 44% | 1010.7 hPa | - | - | - | - |
| 1777980100 | 25° C | 46% | 1010.8 hPa | - | - | - | - |
| 1777979200 | 27.22° C | 40% | 1010.9 hPa | - | - | - | - |
| 1777978300 | 30° C | 40% | 1010.8 hPa | - | - | - | - |
| 1777977400 | 27.22° C | 43% | 1010.9 hPa | - | - | - | - |
| 1777976500 | 27.22° C | 45% | 1011.2 hPa | - | - | - | - |
* Rain since midnight (hover to see other rain measurements)
** Current wind speed in m/s (hover to see current wind gust speed)